createdAt,value
2019-04-07T00:02:05.080Z,97.80
2019-04-07T00:04:35.615Z,97.70
2019-04-07T00:07:06.888Z,97.80
2019-04-07T00:09:37.472Z,97.90
2019-04-07T00:12:08.269Z,98.10
2019-04-07T00:14:39.161Z,98.30
2019-04-07T00:17:12.138Z,98.30
2019-04-07T00:19:42.850Z,98.40
2019-04-07T00:22:13.444Z,98.40
2019-04-07T00:24:44.079Z,98.40
2019-04-07T00:27:16.870Z,98.30
2019-04-07T00:29:50.868Z,98.10
2019-04-07T00:32:22.188Z,98.00
2019-04-07T00:34:53.009Z,98.10
2019-04-07T00:37:23.712Z,98.10
2019-04-07T00:39:56.772Z,98.20
2019-04-07T00:42:27.517Z,98.10
2019-04-07T00:44:59.680Z,97.80
2019-04-07T00:47:30.704Z,97.50
2019-04-07T00:50:03.012Z,97.40
2019-04-07T00:52:33.752Z,97.60
2019-04-07T00:55:05.068Z,97.60
2019-04-07T00:57:35.568Z,98.00
2019-04-07T01:00:08.177Z,97.80
2019-04-07T01:02:38.869Z,98.00
2019-04-07T01:05:09.723Z,98.20
2019-04-07T01:07:40.989Z,98.30
2019-04-07T01:10:12.857Z,98.60
2019-04-07T01:12:43.632Z,99.00
2019-04-07T01:15:15.133Z,99.20
2019-04-07T01:17:45.861Z,99.30
2019-04-07T01:20:16.772Z,99.30
2019-04-07T01:22:47.373Z,99.40
2019-04-07T01:25:18.074Z,99.40
2019-04-07T01:27:49.118Z,99.50
2019-04-07T01:30:20.032Z,99.50
2019-04-07T01:32:51.027Z,99.40
2019-04-07T01:35:22.232Z,99.30
2019-04-07T01:37:52.925Z,99.40
2019-04-07T01:40:23.586Z,99.60
2019-04-07T01:43:13.273Z,99.70
2019-04-07T01:46:03.033Z,99.60
2019-04-07T01:48:53.441Z,99.90
2019-04-07T01:51:33.318Z,99.90
2019-04-07T01:54:17.812Z,99.90
2019-04-07T01:56:55.912Z,99.90
2019-04-07T01:59:35.710Z,99.90
2019-04-07T02:02:13.630Z,99.90
2019-04-07T02:05:03.474Z,99.90
2019-04-07T02:07:53.897Z,99.90
2019-04-07T02:10:40.913Z,99.90
2019-04-07T02:13:30.741Z,99.90
2019-04-07T02:16:20.437Z,99.90
2019-04-07T02:19:06.452Z,99.90
2019-04-07T02:21:46.697Z,99.90
2019-04-07T02:24:23.468Z,99.90
2019-04-07T02:27:13.268Z,99.90
2019-04-07T02:30:03.850Z,99.90
2019-04-07T02:32:54.477Z,99.90
2019-04-07T02:35:35.066Z,99.90
2019-04-07T02:38:17.841Z,99.90
2019-04-07T02:41:09.031Z,99.90
2019-04-07T02:43:47.345Z,99.90
2019-04-07T02:46:37.021Z,99.90
2019-04-07T02:49:22.324Z,99.90
2019-04-07T02:52:00.747Z,99.90
2019-04-07T02:54:40.746Z,99.90
2019-04-07T02:57:30.375Z,99.90
2019-04-07T03:00:20.512Z,99.90
2019-04-07T03:03:06.077Z,99.90
2019-04-07T03:05:56.422Z,99.90
2019-04-07T03:08:47.451Z,99.90
2019-04-07T03:11:37.451Z,99.90
2019-04-07T03:14:14.188Z,99.90
2019-04-07T03:16:59.872Z,99.90
2019-04-07T03:19:35.752Z,99.90
2019-04-07T03:22:15.076Z,99.90
2019-04-07T03:24:55.822Z,99.90
2019-04-07T03:27:34.842Z,99.90
2019-04-07T03:30:27.917Z,99.90
2019-04-07T03:33:21.632Z,99.90
2019-04-07T03:36:11.530Z,99.90
2019-04-07T03:38:59.432Z,99.90
2019-04-07T03:41:45.826Z,99.90
2019-04-07T03:44:32.292Z,99.90
2019-04-07T03:47:16.738Z,99.90
2019-04-07T03:50:07.182Z,99.90
2019-04-07T03:52:52.102Z,99.90
2019-04-07T03:55:42.394Z,99.90
2019-04-07T03:58:32.278Z,99.90
2019-04-07T04:01:20.953Z,99.90
2019-04-07T04:03:59.184Z,99.90
2019-04-07T04:06:49.670Z,99.90
2019-04-07T04:09:26.889Z,99.90
2019-04-07T04:12:03.113Z,99.90
2019-04-07T04:14:52.848Z,99.90
2019-04-07T04:17:25.132Z,99.90
2019-04-07T04:19:55.967Z,99.90
2019-04-07T04:22:26.500Z,99.90
2019-04-07T04:24:58.142Z,99.90
2019-04-07T04:27:28.774Z,99.90
2019-04-07T04:29:59.394Z,99.90
2019-04-07T04:32:30.624Z,99.90
2019-04-07T04:35:03.333Z,99.90
2019-04-07T04:37:41.835Z,99.90
2019-04-07T04:40:07.505Z,99.90
2019-04-07T04:42:38.113Z,99.90
2019-04-07T04:45:09.045Z,99.90
2019-04-07T04:47:40.667Z,99.90
2019-04-07T04:50:12.899Z,99.90
2019-04-07T04:52:43.455Z,99.90
2019-04-07T04:55:14.149Z,99.90
2019-04-07T04:57:45.708Z,99.90
2019-04-07T05:00:18.501Z,99.90
2019-04-07T05:02:50.265Z,99.90
2019-04-07T05:05:21.201Z,99.90
2019-04-07T05:07:59.276Z,99.90
2019-04-07T05:10:25.181Z,99.90
2019-04-07T05:12:57.223Z,99.90
2019-04-07T05:15:28.718Z,99.90
2019-04-07T05:18:02.513Z,99.90
2019-04-07T05:20:33.163Z,99.90
2019-04-07T05:23:04.120Z,99.90
2019-04-07T05:25:36.135Z,99.90
2019-04-07T05:28:06.937Z,99.90
2019-04-07T05:30:37.989Z,99.90
2019-04-07T05:33:09.966Z,99.90
2019-04-07T05:35:40.512Z,99.90
2019-04-07T05:38:11.315Z,99.90
2019-04-07T05:40:42.230Z,99.90
2019-04-07T05:43:12.813Z,99.90
2019-04-07T05:45:44.026Z,99.90
2019-04-07T05:48:17.337Z,99.90
2019-04-07T05:50:47.358Z,99.90
2019-04-07T05:53:18.168Z,99.90
2019-04-07T05:55:49.218Z,99.90
2019-04-07T05:58:20.079Z,99.90
2019-04-07T06:00:50.787Z,99.90
2019-04-07T06:03:22.811Z,99.90
2019-04-07T06:05:53.929Z,99.90
2019-04-07T06:08:30.190Z,99.90
2019-04-07T06:11:00.187Z,99.90
2019-04-07T06:13:29.143Z,99.90
2019-04-07T06:15:59.861Z,99.90
2019-04-07T06:18:34.277Z,99.40
2019-04-07T06:21:06.068Z,99.10
2019-04-07T06:23:37.457Z,98.60
2019-04-07T06:26:11.326Z,98.10
2019-04-07T06:28:40.511Z,98.10
2019-04-07T06:31:11.767Z,98.30
2019-04-07T06:33:42.550Z,98.20
2019-04-07T06:36:13.404Z,98.10
2019-04-07T06:38:50.982Z,98.00
2019-04-07T06:41:18.404Z,97.50
2019-04-07T06:43:49.668Z,97.20
2019-04-07T06:46:40.076Z,97.00
2019-04-07T06:49:17.882Z,96.90
2019-04-07T06:52:05.970Z,96.40
2019-04-07T06:54:41.884Z,96.50
2019-04-07T06:57:35.052Z,96.40
2019-04-07T07:00:24.406Z,96.30
2019-04-07T07:03:12.850Z,96.50
2019-04-07T07:06:02.656Z,96.50
2019-04-07T07:08:45.060Z,97.10
2019-04-07T07:11:29.804Z,96.80
2019-04-07T07:14:14.027Z,96.40
2019-04-07T07:16:58.753Z,96.20
2019-04-07T07:19:42.309Z,95.90
2019-04-07T07:22:16.182Z,95.50
2019-04-07T07:24:47.427Z,94.90
2019-04-07T07:27:18.212Z,94.00
2019-04-07T07:29:51.928Z,94.00
2019-04-07T07:32:21.571Z,94.20
2019-04-07T07:34:52.785Z,94.00
2019-04-07T07:37:25.398Z,94.00
2019-04-07T07:39:56.385Z,94.10
2019-04-07T07:42:27.767Z,94.40
2019-04-07T07:44:58.640Z,94.70
2019-04-07T07:47:31.220Z,95.10
2019-04-07T07:50:04.874Z,95.10
2019-04-07T07:52:34.193Z,95.50
2019-04-07T07:55:05.819Z,95.50
2019-04-07T07:57:37.065Z,95.90
2019-04-07T08:00:08.773Z,95.90
2019-04-07T08:02:40.098Z,96.10
2019-04-07T08:05:11.437Z,96.00
2019-04-07T08:07:46.801Z,96.00
2019-04-07T08:10:16.952Z,95.30
2019-04-07T08:12:49.446Z,94.70
2019-04-07T08:15:23.523Z,94.80
2019-04-07T08:17:53.069Z,94.50
2019-04-07T08:20:24.238Z,94.00
2019-04-07T08:22:54.965Z,94.00
2019-04-07T08:25:25.890Z,93.40
2019-04-07T08:27:58.028Z,92.70
2019-04-07T08:30:28.869Z,91.50
2019-04-07T08:33:01.232Z,91.30
2019-04-07T08:35:36.810Z,89.90
2019-04-07T08:38:05.998Z,90.10
2019-04-07T08:40:38.192Z,89.70
2019-04-07T08:43:08.878Z,89.00
2019-04-07T08:45:39.854Z,89.80
2019-04-07T08:48:10.898Z,90.10
2019-04-07T08:50:42.080Z,89.70
2019-04-07T08:53:14.128Z,90.80
2019-04-07T08:55:48.638Z,90.00
2019-04-07T08:58:36.155Z,90.60
2019-04-07T09:01:03.364Z,90.10
2019-04-07T09:03:34.719Z,90.90
2019-04-07T09:06:06.239Z,90.50
2019-04-07T09:08:38.204Z,90.00
2019-04-07T09:11:13.204Z,90.10
2019-04-07T09:13:50.707Z,89.90
2019-04-07T09:16:31.247Z,86.00
2019-04-07T09:19:21.183Z,86.00
2019-04-07T09:22:11.804Z,85.80
2019-04-07T09:24:56.745Z,83.10
2019-04-07T09:27:35.274Z,82.90
2019-04-07T09:30:20.756Z,82.60
2019-04-07T09:33:06.015Z,78.20
2019-04-07T09:35:47.642Z,78.20
2019-04-07T09:38:35.400Z,77.40
2019-04-07T09:41:27.826Z,73.80
2019-04-07T09:44:14.358Z,72.20
2019-04-07T09:47:04.349Z,71.50
2019-04-07T09:49:48.497Z,71.60
2019-04-07T09:52:27.091Z,72.60
2019-04-07T09:55:09.163Z,72.20
2019-04-07T09:57:50.272Z,73.20
2019-04-07T10:00:39.862Z,72.60
2019-04-07T10:03:19.149Z,70.90
2019-04-07T10:06:10.628Z,72.70
2019-04-07T10:08:55.444Z,71.50
2019-04-07T10:11:47.340Z,70.40
2019-04-07T10:14:37.589Z,69.20
2019-04-07T10:17:27.761Z,68.10
2019-04-07T10:20:18.253Z,70.30
2019-04-07T10:23:01.760Z,70.20
2019-04-07T10:25:42.312Z,69.70
2019-04-07T10:28:18.807Z,67.30
2019-04-07T10:31:06.084Z,66.40
2019-04-07T10:33:56.262Z,63.40
2019-04-07T10:36:40.745Z,62.50
2019-04-07T10:39:17.602Z,59.90
2019-04-07T10:42:07.561Z,62.40
2019-04-07T10:44:45.063Z,60.80
2019-04-07T10:47:21.836Z,59.00
2019-04-07T10:50:05.203Z,59.60
2019-04-07T10:52:51.864Z,57.80
2019-04-07T10:55:38.039Z,58.20
2019-04-07T10:58:31.276Z,56.00
2019-04-07T11:01:14.542Z,54.70
2019-04-07T11:03:54.775Z,57.10
2019-04-07T11:06:45.075Z,54.80
2019-04-07T11:09:28.575Z,55.10
2019-04-07T11:12:18.436Z,54.10
2019-04-07T11:15:05.305Z,55.10
2019-04-07T11:17:51.559Z,51.60
2019-04-07T11:20:37.415Z,52.10
2019-04-07T11:23:18.234Z,50.90
2019-04-07T11:26:08.802Z,53.90
2019-04-07T11:28:48.039Z,52.50
2019-04-07T11:31:27.758Z,54.20
2019-04-07T11:34:12.787Z,55.20
2019-04-07T11:36:54.391Z,55.20
2019-04-07T11:39:32.764Z,54.90
2019-04-07T11:42:23.015Z,55.40
2019-04-07T11:45:07.108Z,52.30
2019-04-07T11:47:57.026Z,51.30
2019-04-07T11:50:47.224Z,51.40
2019-04-07T11:53:23.198Z,49.60
2019-04-07T11:56:13.309Z,49.00
2019-04-07T11:58:51.587Z,47.40
2019-04-07T12:01:43.663Z,46.90
2019-04-07T12:04:31.709Z,45.50
2019-04-07T12:07:12.722Z,45.60
2019-04-07T12:10:03.045Z,45.40
2019-04-07T12:12:48.299Z,46.60
2019-04-07T12:15:30.210Z,44.70
2019-04-07T12:18:14.960Z,44.30
2019-04-07T12:21:00.924Z,43.60
2019-04-07T12:24:00.453Z,45.20
2019-04-07T12:26:50.666Z,45.00
2019-04-07T12:29:36.386Z,46.60
2019-04-07T12:32:15.957Z,44.40
2019-04-07T12:35:06.300Z,44.90
2019-04-07T12:37:49.193Z,44.50
2019-04-07T12:40:39.175Z,43.10
2019-04-07T12:43:17.446Z,41.60
2019-04-07T12:46:02.431Z,43.50
2019-04-07T12:48:46.930Z,43.50
2019-04-07T12:51:52.382Z,43.20
2019-04-07T12:54:27.751Z,42.30
2019-04-07T12:57:09.297Z,43.10
2019-04-07T12:59:59.588Z,45.60
2019-04-07T13:02:53.232Z,44.90
2019-04-07T13:05:36.650Z,44.50
2019-04-07T13:08:27.356Z,45.20
2019-04-07T13:11:08.855Z,44.80
2019-04-07T13:14:01.608Z,43.50
2019-04-07T13:16:49.179Z,42.90
2019-04-07T13:19:41.816Z,42.70
2019-04-07T13:22:18.309Z,42.40
2019-04-07T13:25:00.135Z,43.60
2019-04-07T13:27:50.184Z,44.00
2019-04-07T13:30:27.103Z,43.90
2019-04-07T13:33:14.008Z,43.00
2019-04-07T13:36:00.748Z,43.20
2019-04-07T13:38:38.654Z,43.20
2019-04-07T13:41:23.774Z,43.60
2019-04-07T13:44:07.186Z,43.00
2019-04-07T13:46:53.224Z,44.10
2019-04-07T13:49:43.242Z,44.10
2019-04-07T13:52:23.083Z,43.90
2019-04-07T13:55:07.704Z,45.60
2019-04-07T13:57:59.560Z,44.30
2019-04-07T14:00:50.578Z,45.80
2019-04-07T14:03:40.736Z,44.70
2019-04-07T14:06:22.122Z,43.60
2019-04-07T14:09:02.542Z,43.90
2019-04-07T14:12:04.231Z,43.10
2019-04-07T14:14:35.984Z,41.60
2019-04-07T14:17:29.728Z,43.00
2019-04-07T14:20:20.425Z,43.50
2019-04-07T14:23:13.579Z,43.60
2019-04-07T14:26:00.110Z,43.30
2019-04-07T14:28:41.164Z,45.00
2019-04-07T14:31:29.366Z,46.30
2019-04-07T14:34:19.388Z,45.80
2019-04-07T14:37:03.250Z,44.60
2019-04-07T14:39:46.605Z,44.00
2019-04-07T14:42:31.663Z,44.40
2019-04-07T14:45:13.383Z,44.20
2019-04-07T14:47:54.997Z,44.60
2019-04-07T14:50:44.905Z,44.90
2019-04-07T14:53:22.285Z,46.90
2019-04-07T14:56:12.495Z,49.10
2019-04-07T14:59:03.994Z,50.90
2019-04-07T15:01:44.739Z,51.50
2019-04-07T15:04:15.675Z,52.20
2019-04-07T15:06:49.126Z,51.90
2019-04-07T15:09:25.686Z,53.00
2019-04-07T15:12:21.491Z,52.80
2019-04-07T15:14:49.100Z,52.20
2019-04-07T15:17:20.925Z,52.00
2019-04-07T15:19:52.485Z,52.60
2019-04-07T15:22:28.894Z,52.30
2019-04-07T15:24:57.076Z,53.40
2019-04-07T15:27:28.330Z,53.60
2019-04-07T15:30:00.562Z,52.20
2019-04-07T15:32:31.581Z,52.10
2019-04-07T15:35:03.073Z,51.80
2019-04-07T15:37:34.695Z,52.50
2019-04-07T15:40:08.266Z,53.30
2019-04-07T15:42:44.182Z,54.10
2019-04-07T15:45:13.366Z,54.10
2019-04-07T15:47:44.598Z,55.20
2019-04-07T15:50:15.922Z,55.00
2019-04-07T15:52:47.365Z,53.00
2019-04-07T15:55:18.876Z,51.70
2019-04-07T15:57:53.512Z,53.00
2019-04-07T16:00:22.339Z,52.50
2019-04-07T16:02:53.949Z,52.00
2019-04-07T16:05:26.702Z,51.90
2019-04-07T16:07:57.827Z,51.80
2019-04-07T16:10:29.121Z,51.90
2019-04-07T16:13:01.383Z,51.80
2019-04-07T16:15:32.362Z,52.30
2019-04-07T16:18:06.369Z,52.70
2019-04-07T16:20:39.558Z,52.90
2019-04-07T16:23:08.543Z,53.20
2019-04-07T16:25:41.525Z,52.80
2019-04-07T16:28:14.672Z,53.70
2019-04-07T16:30:47.823Z,54.70
2019-04-07T16:33:17.525Z,56.80
2019-04-07T16:35:53.466Z,57.00
2019-04-07T16:38:21.225Z,58.00
2019-04-07T16:40:52.693Z,57.60
2019-04-07T16:43:24.193Z,58.40
2019-04-07T16:45:56.029Z,58.70
2019-04-07T16:48:29.038Z,59.50
2019-04-07T16:51:02.665Z,59.00
2019-04-07T16:53:36.203Z,60.00
2019-04-07T16:56:05.339Z,62.00
2019-04-07T16:58:38.569Z,62.30
2019-04-07T17:01:10.847Z,62.30
2019-04-07T17:03:41.988Z,62.60
2019-04-07T17:06:14.713Z,63.10
2019-04-07T17:08:46.583Z,63.40
2019-04-07T17:11:18.063Z,64.20
2019-04-07T17:13:49.181Z,64.70
2019-04-07T17:16:22.894Z,65.20
2019-04-07T17:18:56.167Z,66.10
2019-04-07T17:21:27.669Z,67.20
2019-04-07T17:23:59.269Z,68.00
2019-04-07T17:26:30.796Z,69.60
2019-04-07T17:29:04.382Z,69.80
2019-04-07T17:31:35.410Z,70.60
2019-04-07T17:34:09.916Z,71.60
2019-04-07T17:36:40.902Z,72.00
2019-04-07T17:39:36.938Z,72.90
2019-04-07T17:42:12.627Z,73.50
2019-04-07T17:45:03.452Z,74.00
2019-04-07T17:47:55.026Z,75.40
2019-04-07T17:50:45.155Z,76.50
2019-04-07T17:53:36.943Z,77.70
2019-04-07T17:56:29.691Z,79.60
2019-04-07T17:59:09.367Z,80.60
2019-04-07T18:01:56.667Z,81.50
2019-04-07T18:04:36.088Z,82.10
2019-04-07T18:07:22.052Z,83.40
2019-04-07T18:10:11.835Z,84.10
2019-04-07T18:12:55.638Z,84.60
2019-04-07T18:15:45.621Z,85.90
2019-04-07T18:18:36.670Z,86.00
2019-04-07T18:21:28.355Z,87.30
2019-04-07T18:24:20.574Z,88.00
2019-04-07T18:27:01.676Z,87.90
2019-04-07T18:29:50.289Z,88.10
2019-04-07T18:32:35.164Z,88.60
2019-04-07T18:35:29.870Z,88.90
2019-04-07T18:38:11.397Z,89.30
2019-04-07T18:41:09.453Z,90.10
2019-04-07T18:44:02.439Z,90.40
2019-04-07T18:46:50.815Z,90.80
2019-04-07T18:49:32.076Z,91.90
2019-04-07T18:52:23.029Z,92.60
2019-04-07T18:55:14.020Z,92.60
2019-04-07T18:58:00.757Z,92.30
2019-04-07T19:00:52.107Z,92.50
2019-04-07T19:03:38.541Z,92.50
2019-04-07T19:06:29.046Z,92.80
2019-04-07T19:09:11.147Z,93.00
2019-04-07T19:12:02.960Z,93.10
2019-04-07T19:14:48.118Z,94.00
2019-04-07T19:17:36.696Z,93.90
2019-04-07T19:20:27.435Z,94.20
2019-04-07T19:23:05.132Z,94.20
2019-04-07T19:25:55.229Z,94.40
2019-04-07T19:28:38.202Z,95.00
2019-04-07T19:31:26.357Z,94.80
2019-04-07T19:34:17.298Z,94.90
2019-04-07T19:37:08.062Z,95.10
2019-04-07T19:39:57.529Z,95.40
2019-04-07T19:42:39.891Z,95.60
2019-04-07T19:45:24.745Z,95.80
2019-04-07T19:48:07.398Z,95.70
2019-04-07T19:50:50.843Z,96.00
2019-04-07T19:53:32.772Z,96.40
2019-04-07T19:56:23.118Z,96.90
2019-04-07T19:59:10.371Z,97.10
2019-04-07T20:02:02.245Z,97.40
2019-04-07T20:04:53.563Z,97.50
2019-04-07T20:07:33.871Z,97.30
2019-04-07T20:10:19.920Z,97.50
2019-04-07T20:13:07.547Z,97.10
2019-04-07T20:15:47.506Z,97.60
2019-04-07T20:18:37.429Z,97.90
2019-04-07T20:21:35.855Z,98.10
2019-04-07T20:24:10.273Z,98.10
2019-04-07T20:26:59.767Z,97.90
2019-04-07T20:29:50.006Z,97.70
2019-04-07T20:32:33.482Z,97.60
2019-04-07T20:35:23.190Z,97.60
2019-04-07T20:38:06.716Z,98.20
2019-04-07T20:40:56.293Z,98.40
2019-04-07T20:43:46.445Z,98.70
2019-04-07T20:46:36.061Z,99.00
2019-04-07T20:49:26.422Z,99.20
2019-04-07T20:52:08.748Z,99.10
2019-04-07T20:54:48.757Z,99.10
2019-04-07T20:57:39.036Z,99.40
2019-04-07T21:00:30.652Z,99.50
2019-04-07T21:03:24.975Z,99.20
2019-04-07T21:06:02.176Z,99.10
2019-04-07T21:08:41.544Z,98.90
2019-04-07T21:11:31.158Z,98.70
2019-04-07T21:14:20.880Z,98.70
2019-04-07T21:17:02.657Z,98.70
2019-04-07T21:19:52.403Z,99.00
2019-04-07T21:22:33.472Z,99.10
2019-04-07T21:25:25.148Z,99.90
2019-04-07T21:28:06.190Z,99.60
2019-04-07T21:30:43.817Z,99.90
2019-04-07T21:33:23.620Z,99.90
2019-04-07T21:36:06.194Z,99.90
2019-04-07T21:38:55.499Z,99.90
2019-04-07T21:41:46.378Z,99.90
2019-04-07T21:44:36.279Z,99.90
2019-04-07T21:47:27.966Z,99.90
2019-04-07T21:50:19.250Z,99.90
2019-04-07T21:53:00.201Z,99.90
2019-04-07T21:55:45.700Z,99.90
2019-04-07T21:58:25.422Z,99.90
2019-04-07T22:01:05.953Z,99.90
2019-04-07T22:03:48.443Z,99.90
2019-04-07T22:06:37.395Z,99.90
2019-04-07T22:09:17.089Z,99.90
2019-04-07T22:11:48.031Z,99.90
2019-04-07T22:14:18.864Z,99.90
2019-04-07T22:16:49.547Z,99.90
2019-04-07T22:19:20.322Z,99.90
2019-04-07T22:21:55.765Z,99.90
2019-04-07T22:24:23.112Z,99.90
2019-04-07T22:26:53.752Z,99.90
2019-04-07T22:29:24.532Z,99.90
2019-04-07T22:31:57.740Z,99.90
2019-04-07T22:34:31.451Z,99.90
2019-04-07T22:37:00.460Z,99.90
2019-04-07T22:39:32.115Z,99.90
2019-04-07T22:42:04.423Z,99.90
2019-04-07T22:44:35.564Z,99.90
2019-04-07T22:47:07.082Z,99.90
2019-04-07T22:49:37.682Z,99.90
2019-04-07T22:52:08.262Z,99.90
2019-04-07T22:54:38.962Z,99.90
2019-04-07T22:57:13.087Z,99.90
2019-04-07T22:59:41.862Z,99.90
2019-04-07T23:02:12.502Z,99.90
2019-04-07T23:04:43.111Z,99.90
2019-04-07T23:07:14.082Z,99.90
2019-04-07T23:09:45.410Z,99.90
2019-04-07T23:12:16.929Z,99.90
2019-04-07T23:14:47.721Z,99.90
2019-04-07T23:17:18.341Z,99.90
2019-04-07T23:19:48.908Z,99.90
2019-04-07T23:22:20.489Z,99.90
2019-04-07T23:24:51.154Z,99.90
2019-04-07T23:27:24.605Z,99.90
2019-04-07T23:29:55.223Z,99.90
2019-04-07T23:32:25.825Z,99.90
2019-04-07T23:34:57.642Z,99.90
2019-04-07T23:37:28.404Z,99.90
2019-04-07T23:40:00.218Z,99.90
2019-04-07T23:42:30.776Z,99.90
2019-04-07T23:45:04.884Z,99.90
2019-04-07T23:47:35.738Z,99.90
2019-04-07T23:50:07.628Z,99.90
2019-04-07T23:52:41.185Z,99.90
2019-04-07T23:55:12.855Z,99.90
2019-04-07T23:57:44.418Z,99.90
